createdAt,value
2023-05-10T00:04:46.247Z,11.60
2023-05-10T00:09:49.633Z,11.51
2023-05-10T00:14:53.397Z,10.24
2023-05-10T00:19:56.190Z,10.87
2023-05-10T00:24:59.094Z,11.48
2023-05-10T00:30:12.021Z,11.43
2023-05-10T00:35:14.591Z,10.99
2023-05-10T00:40:18.068Z,11.43
2023-05-10T00:45:22.004Z,11.15
2023-05-10T00:50:25.855Z,10.08
2023-05-10T00:55:30.141Z,11.14
2023-05-10T01:00:35.311Z,11.44
2023-05-10T01:05:40.044Z,11.86
2023-05-10T01:10:47.501Z,11.25
2023-05-10T01:15:51.597Z,11.18
2023-05-10T01:21:11.510Z,11.87
2023-05-10T01:26:28.042Z,12.08
2023-05-10T01:32:05.270Z,12.19
2023-05-10T01:37:21.762Z,11.62
2023-05-10T01:42:38.430Z,11.46
2023-05-10T01:47:45.476Z,11.72
2023-05-10T01:53:01.111Z,12.03
2023-05-10T01:58:09.963Z,11.75
2023-05-10T02:03:15.724Z,10.50
2023-05-10T02:08:20.170Z,10.22
2023-05-10T02:13:26.425Z,11.43
2023-05-10T02:18:29.748Z,11.27
2023-05-10T02:23:39.141Z,11.99
2023-05-10T02:28:42.996Z,11.37
2023-05-10T02:33:48.205Z,10.49
2023-05-10T02:38:53.624Z,11.14
2023-05-10T02:44:01.139Z,11.25
2023-05-10T02:49:04.987Z,11.59
2023-05-10T02:54:22.255Z,11.17
2023-05-10T02:59:25.389Z,11.54
2023-05-10T03:04:28.464Z,11.51
2023-05-10T03:09:31.757Z,11.90
2023-05-10T03:14:56.218Z,12.01
2023-05-10T03:20:04.643Z,12.00
2023-05-10T03:25:10.236Z,12.05
2023-05-10T03:30:23.571Z,12.05
2023-05-10T03:35:26.463Z,11.57
2023-05-10T03:40:34.016Z,11.74
2023-05-10T03:45:36.937Z,11.81
2023-05-10T03:50:39.564Z,11.19
2023-05-10T03:55:42.190Z,12.07
2023-05-10T04:00:47.546Z,10.84
2023-05-10T04:05:50.459Z,11.64
2023-05-10T04:10:53.424Z,11.52
2023-05-10T04:15:56.297Z,11.90
2023-05-10T04:20:58.914Z,11.27
2023-05-10T04:26:11.729Z,11.98
2023-05-10T04:31:24.427Z,11.53
2023-05-10T04:36:28.165Z,11.73
2023-05-10T04:41:30.931Z,12.22
2023-05-10T04:46:43.671Z,11.83
2023-05-10T04:51:46.610Z,11.59
2023-05-10T04:56:49.499Z,11.49
2023-05-10T05:01:52.451Z,12.07
2023-05-10T05:07:05.189Z,11.75
2023-05-10T05:12:08.045Z,12.03
2023-05-10T05:17:10.845Z,12.31
2023-05-10T05:22:13.553Z,10.95
2023-05-10T05:27:16.188Z,11.20
2023-05-10T05:32:19.482Z,11.20
2023-05-10T05:37:26.480Z,11.45
2023-05-10T05:42:29.429Z,12.08
2023-05-10T05:47:32.088Z,12.08
2023-05-10T05:52:44.010Z,11.66
2023-05-10T05:57:47.561Z,12.27
2023-05-10T06:02:50.219Z,12.05
2023-05-10T06:07:53.068Z,11.22
2023-05-10T06:12:55.976Z,11.07
2023-05-10T06:17:58.841Z,11.70
2023-05-10T06:23:01.703Z,11.88
2023-05-10T06:28:06.158Z,12.21
2023-05-10T06:33:08.944Z,12.77
2023-05-10T06:38:11.792Z,12.51
2023-05-10T06:43:14.566Z,11.27
2023-05-10T06:48:17.394Z,13.08
2023-05-10T06:53:28.620Z,12.87
2023-05-10T06:58:31.407Z,12.75
2023-05-10T07:03:34.215Z,12.18
2023-05-10T07:08:38.223Z,12.38
2023-05-10T07:13:43.314Z,12.58
2023-05-10T07:18:46.002Z,12.11
2023-05-10T07:23:48.510Z,11.66
2023-05-10T07:28:54.271Z,11.39
2023-05-10T07:33:56.977Z,12.71
2023-05-10T07:38:59.779Z,11.32
2023-05-10T07:44:02.916Z,12.48
2023-05-10T07:49:06.468Z,12.18
2023-05-10T07:54:12.541Z,11.88
2023-05-10T07:59:19.412Z,11.26
2023-05-10T08:04:28.528Z,11.84
2023-05-10T08:09:31.424Z,10.99
2023-05-10T08:14:34.104Z,12.08
2023-05-10T08:19:38.014Z,11.65
2023-05-10T08:24:40.839Z,10.74
2023-05-10T08:29:49.991Z,11.71
2023-05-10T08:34:53.134Z,11.60
2023-05-10T08:40:04.800Z,11.76
2023-05-10T08:45:09.332Z,12.46
2023-05-10T08:50:12.419Z,12.39
2023-05-10T08:55:25.347Z,11.34
2023-05-10T09:00:30.332Z,12.21
2023-05-10T09:05:33.063Z,12.26
2023-05-10T09:10:36.108Z,12.08
2023-05-10T09:15:38.981Z,12.04
2023-05-10T09:20:42.320Z,10.66
2023-05-10T09:25:44.902Z,10.54
2023-05-10T09:30:55.504Z,12.12
2023-05-10T09:36:09.215Z,11.88
2023-05-10T09:41:24.075Z,10.88
2023-05-10T09:46:26.997Z,11.42
2023-05-10T09:51:29.778Z,10.54
2023-05-10T09:56:37.972Z,11.05
2023-05-10T10:01:41.689Z,11.28
2023-05-10T10:06:44.804Z,10.41
2023-05-10T10:11:47.922Z,11.18
2023-05-10T10:17:05.724Z,11.47
2023-05-10T10:22:14.698Z,11.57
2023-05-10T10:27:38.591Z,11.51
2023-05-10T10:33:10.178Z,11.47
2023-05-10T10:38:19.284Z,11.39
2023-05-10T10:43:30.113Z,11.28
2023-05-10T10:48:32.731Z,11.17
2023-05-10T10:53:36.122Z,10.56
2023-05-10T10:58:40.502Z,11.01
2023-05-10T11:03:56.883Z,11.44
2023-05-10T11:09:00.386Z,11.32
2023-05-10T11:14:09.444Z,10.34
2023-05-10T11:19:14.131Z,11.46
2023-05-10T11:24:19.947Z,11.10
2023-05-10T11:29:24.290Z,11.43
2023-05-10T11:34:30.114Z,11.67
2023-05-10T11:39:33.663Z,11.30
2023-05-10T11:44:38.566Z,11.83
2023-05-10T11:49:46.072Z,11.95
2023-05-10T11:54:57.637Z,12.04
2023-05-10T12:00:00.441Z,11.78
2023-05-10T12:05:05.830Z,12.14
2023-05-10T12:10:21.324Z,12.27
2023-05-10T12:15:26.870Z,12.48
2023-05-10T12:20:30.698Z,11.89
2023-05-10T12:25:37.765Z,12.49
2023-05-10T12:30:50.903Z,11.99
2023-05-10T12:36:01.554Z,12.15
2023-05-10T12:41:08.678Z,12.28
2023-05-10T12:46:16.252Z,11.41
2023-05-10T12:51:21.363Z,12.50
2023-05-10T12:56:24.078Z,12.50
2023-05-10T13:01:26.860Z,12.29
2023-05-10T13:06:29.728Z,12.14
2023-05-10T13:11:32.607Z,11.60
2023-05-10T13:16:35.266Z,12.03
2023-05-10T13:21:37.966Z,12.28
2023-05-10T13:26:40.522Z,11.93
2023-05-10T13:31:43.611Z,11.46
2023-05-10T13:36:47.153Z,12.56
2023-05-10T13:41:50.244Z,12.39
2023-05-10T13:46:53.165Z,11.85
2023-05-10T13:51:56.106Z,12.56
2023-05-10T13:56:58.697Z,11.90
2023-05-10T14:02:04.390Z,12.16
2023-05-10T14:07:07.866Z,12.13
2023-05-10T14:12:10.458Z,11.97
2023-05-10T14:17:13.118Z,11.86
2023-05-10T14:22:15.635Z,11.32
2023-05-10T14:27:18.464Z,11.91
2023-05-10T14:32:22.149Z,11.89
2023-05-10T14:37:24.886Z,11.86
2023-05-10T14:42:27.604Z,11.68
2023-05-10T14:47:30.456Z,11.69
2023-05-10T14:52:34.352Z,11.88
2023-05-10T14:57:39.162Z,11.10
2023-05-10T15:02:51.946Z,11.30
2023-05-10T15:07:55.265Z,11.75
2023-05-10T15:12:58.195Z,11.52
2023-05-10T15:18:13.904Z,11.43
2023-05-10T15:23:16.541Z,11.27
2023-05-10T15:28:19.507Z,11.80
2023-05-10T15:33:32.174Z,11.75
2023-05-10T15:38:34.921Z,11.51
2023-05-10T15:43:37.575Z,11.50
2023-05-10T15:48:41.419Z,11.38
2023-05-10T15:53:56.540Z,10.60
2023-05-10T15:59:04.634Z,11.33
2023-05-10T16:04:20.742Z,10.92
2023-05-10T16:09:23.575Z,11.56
2023-05-10T16:14:26.191Z,10.92
2023-05-10T16:19:29.835Z,10.99
2023-05-10T16:24:33.817Z,10.92
2023-05-10T16:29:36.824Z,10.51
2023-05-10T16:34:39.467Z,10.85
2023-05-10T16:39:42.135Z,10.84
2023-05-10T16:44:45.237Z,11.01
2023-05-10T16:49:59.884Z,10.12
2023-05-10T16:55:04.092Z,11.05
2023-05-10T17:00:07.290Z,10.55
2023-05-10T17:05:10.379Z,10.07
2023-05-10T17:10:13.137Z,10.63
2023-05-10T17:15:18.091Z,10.67
2023-05-10T17:20:21.025Z,10.52
2023-05-10T17:25:23.786Z,9.77
2023-05-10T17:40:55.830Z,10.83
2023-05-10T17:45:59.632Z,10.68
2023-05-10T17:51:05.560Z,10.25
2023-05-10T17:56:08.736Z,9.92
2023-05-10T18:01:11.616Z,10.63
2023-05-10T18:06:14.408Z,9.60
2023-05-10T18:11:17.543Z,10.85
2023-05-10T18:16:26.385Z,10.48
2023-05-10T18:21:29.187Z,9.76
2023-05-10T18:26:31.828Z,10.19
2023-05-10T18:31:34.580Z,9.56
2023-05-10T18:36:37.227Z,10.38
2023-05-10T18:41:47.885Z,10.30
2023-05-10T18:46:54.727Z,10.56
2023-05-10T18:52:07.842Z,10.69
2023-05-10T18:57:13.727Z,10.65
2023-05-10T19:02:23.400Z,10.68
2023-05-10T19:07:26.982Z,10.49
2023-05-10T19:12:30.465Z,10.12
2023-05-10T19:17:35.374Z,10.07
2023-05-10T19:27:46.609Z,10.13
2023-05-10T19:32:59.961Z,10.65
2023-05-10T19:38:03.294Z,10.57
2023-05-10T19:43:07.201Z,10.62
2023-05-10T19:48:16.546Z,10.51
2023-05-10T19:53:20.855Z,10.25
2023-05-10T19:58:29.705Z,10.49
2023-05-10T20:03:35.350Z,10.32
2023-05-10T20:08:40.293Z,10.25
2023-05-10T20:13:44.443Z,10.46
2023-05-10T20:18:47.943Z,9.88
2023-05-10T20:23:52.363Z,10.49
2023-05-10T20:28:55.130Z,9.93
2023-05-10T20:34:00.159Z,10.54
2023-05-10T20:39:04.781Z,10.37
2023-05-10T20:44:09.431Z,10.71
2023-05-10T20:49:12.769Z,10.37
2023-05-10T20:54:15.584Z,10.21
2023-05-10T20:59:19.573Z,10.78
2023-05-10T21:04:35.466Z,10.59
2023-05-10T21:09:38.007Z,9.92
2023-05-10T21:14:40.849Z,10.93
2023-05-10T21:19:43.580Z,10.90
2023-05-10T21:24:56.144Z,10.79
2023-05-10T21:29:58.874Z,10.99
2023-05-10T21:35:01.665Z,10.72
2023-05-10T21:40:05.592Z,10.74
2023-05-10T21:45:09.446Z,10.09
2023-05-10T21:50:13.258Z,10.98
2023-05-10T21:55:16.442Z,11.10
2023-05-10T22:00:20.604Z,10.59
2023-05-10T22:05:23.628Z,10.14
2023-05-10T22:10:33.743Z,10.31
2023-05-10T22:15:39.328Z,10.25
2023-05-10T22:20:41.946Z,10.70
2023-05-10T22:25:45.239Z,10.82
2023-05-10T22:30:49.203Z,10.54
2023-05-10T22:35:52.306Z,10.49
2023-05-10T22:40:55.276Z,10.09
2023-05-10T22:46:08.139Z,10.90
2023-05-10T22:51:10.916Z,10.41
2023-05-10T22:56:23.849Z,10.63
2023-05-10T23:01:26.605Z,10.81
2023-05-10T23:06:29.393Z,10.91
2023-05-10T23:11:31.993Z,10.22
2023-05-10T23:16:34.799Z,11.00
2023-05-10T23:21:37.714Z,10.20
2023-05-10T23:26:40.663Z,10.68
2023-05-10T23:31:47.389Z,10.15
2023-05-10T23:36:50.288Z,10.77
2023-05-10T23:41:52.901Z,10.80
2023-05-10T23:46:55.615Z,10.50
2023-05-10T23:51:58.414Z,10.56
2023-05-10T23:57:00.995Z,10.54
